createdAt,value
2022-08-26T00:01:56.305Z,21.41
2022-08-26T00:04:26.089Z,21.38
2022-08-26T00:06:56.270Z,21.34
2022-08-26T00:09:27.289Z,21.32
2022-08-26T00:11:55.528Z,21.26
2022-08-26T00:14:30.760Z,21.23
2022-08-26T00:16:59.532Z,21.19
2022-08-26T00:19:28.167Z,21.17
2022-08-26T00:21:57.320Z,21.14
2022-08-26T00:24:25.262Z,21.11
2022-08-26T00:26:53.803Z,21.08
2022-08-26T00:29:21.875Z,21.06
2022-08-26T00:31:50.463Z,21.03
2022-08-26T00:34:19.418Z,21.00
2022-08-26T00:36:47.841Z,20.98
2022-08-26T00:39:22.072Z,20.95
2022-08-26T00:41:50.577Z,20.92
2022-08-26T00:44:19.213Z,20.90
2022-08-26T00:46:52.558Z,20.87
2022-08-26T00:49:31.041Z,20.84
2022-08-26T00:52:02.292Z,20.81
2022-08-26T00:54:37.548Z,20.78
2022-08-26T00:57:15.846Z,20.74
2022-08-26T00:59:46.649Z,20.72
2022-08-26T01:02:20.012Z,20.70
2022-08-26T01:04:55.758Z,20.67
2022-08-26T01:07:26.935Z,20.64
2022-08-26T01:09:57.683Z,20.61
2022-08-26T01:12:30.046Z,20.58
2022-08-26T01:14:57.924Z,20.56
2022-08-26T01:17:25.991Z,20.54
2022-08-26T01:20:01.273Z,20.52
2022-08-26T01:22:34.419Z,20.49
2022-08-26T01:25:05.499Z,20.45
2022-08-26T01:27:35.725Z,20.44
2022-08-26T01:30:04.589Z,20.42
2022-08-26T01:32:34.382Z,20.39
2022-08-26T01:35:03.117Z,20.35
2022-08-26T01:37:36.914Z,20.34
2022-08-26T01:40:14.914Z,20.31
2022-08-26T01:42:46.889Z,20.28
2022-08-26T01:45:19.684Z,20.26
2022-08-26T01:47:49.845Z,20.25
2022-08-26T01:50:30.323Z,20.21
2022-08-26T01:53:01.112Z,20.20
2022-08-26T01:55:32.963Z,20.17
2022-08-26T01:58:06.202Z,20.16
2022-08-26T02:00:35.961Z,20.13
2022-08-26T02:03:18.158Z,20.12
2022-08-26T02:05:51.419Z,20.10
2022-08-26T02:08:24.838Z,20.07
2022-08-26T02:10:55.607Z,20.07
2022-08-26T02:13:27.800Z,20.03
2022-08-26T02:15:56.509Z,20.02
2022-08-26T02:18:26.028Z,19.97
2022-08-26T02:20:58.257Z,19.96
2022-08-26T02:23:26.485Z,19.95
2022-08-26T02:26:01.778Z,19.92
2022-08-26T02:28:36.707Z,19.90
2022-08-26T02:31:04.961Z,19.87
2022-08-26T02:33:32.933Z,19.86
2022-08-26T02:36:00.775Z,19.82
2022-08-26T02:38:29.509Z,19.81
2022-08-26T02:40:58.878Z,19.79
2022-08-26T02:43:32.642Z,19.77
2022-08-26T02:46:02.411Z,19.76
2022-08-26T02:48:31.518Z,19.73
2022-08-26T02:51:00.546Z,19.71
2022-08-26T02:53:28.562Z,19.70
2022-08-26T02:56:01.690Z,19.69
2022-08-26T02:58:30.966Z,19.67
2022-08-26T03:00:58.895Z,19.65
2022-08-26T03:03:26.874Z,19.62
2022-08-26T03:05:55.822Z,19.60
2022-08-26T03:08:23.934Z,19.58
2022-08-26T03:10:53.218Z,19.58
2022-08-26T03:13:22.368Z,19.56
2022-08-26T03:15:50.304Z,19.55
2022-08-26T03:18:18.211Z,19.55
2022-08-26T03:20:48.426Z,19.53
2022-08-26T03:23:16.637Z,19.51
2022-08-26T03:25:50.330Z,19.51
2022-08-26T03:28:18.441Z,19.47
2022-08-26T03:30:50.439Z,19.47
2022-08-26T03:33:19.130Z,19.46
2022-08-26T03:35:50.905Z,19.44
2022-08-26T03:38:19.415Z,19.41
2022-08-26T03:40:47.433Z,19.39
2022-08-26T03:43:16.956Z,19.37
2022-08-26T03:45:45.966Z,19.35
2022-08-26T03:48:15.491Z,19.34
2022-08-26T03:50:43.682Z,19.31
2022-08-26T03:53:12.742Z,19.31
2022-08-26T03:55:41.697Z,19.30
2022-08-26T03:58:09.564Z,19.27
2022-08-26T04:00:37.453Z,19.26
2022-08-26T04:03:05.354Z,19.25
2022-08-26T04:05:39.410Z,19.23
2022-08-26T04:08:07.686Z,19.21
2022-08-26T04:10:38.374Z,19.20
2022-08-26T04:13:06.366Z,19.18
2022-08-26T04:15:34.359Z,19.18
2022-08-26T04:18:02.223Z,19.17
2022-08-26T04:20:31.333Z,19.15
2022-08-26T04:23:00.576Z,19.16
2022-08-26T04:25:28.895Z,19.15
2022-08-26T04:27:56.884Z,19.13
2022-08-26T04:30:25.515Z,19.11
2022-08-26T04:32:53.519Z,19.10
2022-08-26T04:35:25.807Z,19.10
2022-08-26T04:37:55.500Z,19.09
2022-08-26T04:40:27.687Z,19.09
2022-08-26T04:42:57.861Z,19.09
2022-08-26T04:45:25.809Z,19.10
2022-08-26T04:47:56.398Z,19.10
2022-08-26T04:50:26.585Z,19.12
2022-08-26T04:52:55.405Z,19.13
2022-08-26T04:55:38.480Z,19.15
2022-08-26T04:58:10.142Z,19.16
2022-08-26T05:00:39.694Z,19.18
2022-08-26T05:03:10.622Z,19.18
2022-08-26T05:05:40.908Z,19.20
2022-08-26T05:08:10.036Z,19.20
2022-08-26T05:10:46.247Z,19.22
2022-08-26T05:13:15.899Z,19.23
2022-08-26T05:15:45.299Z,19.22
2022-08-26T05:18:15.328Z,19.23
2022-08-26T05:20:46.845Z,19.25
2022-08-26T05:23:15.801Z,19.25
2022-08-26T05:25:47.738Z,19.29
2022-08-26T05:28:17.666Z,19.33
2022-08-26T05:30:46.198Z,19.39
2022-08-26T05:33:14.509Z,19.42
2022-08-26T05:35:43.499Z,19.45
2022-08-26T05:38:14.542Z,19.51
2022-08-26T05:40:46.435Z,19.55
2022-08-26T05:43:14.808Z,19.60
2022-08-26T05:45:46.208Z,19.66
2022-08-26T05:48:15.014Z,19.72
2022-08-26T05:50:46.281Z,19.78
2022-08-26T05:53:17.529Z,19.81
2022-08-26T05:55:48.863Z,19.88
2022-08-26T05:58:20.422Z,19.95
2022-08-26T06:00:58.517Z,20.03
2022-08-26T06:03:26.446Z,20.08
2022-08-26T06:05:54.874Z,20.14
2022-08-26T06:08:23.038Z,20.21
2022-08-26T06:10:55.205Z,20.26
2022-08-26T06:13:25.639Z,20.29
2022-08-26T06:15:54.527Z,20.36
2022-08-26T06:18:27.420Z,20.41
2022-08-26T06:20:57.700Z,20.48
2022-08-26T06:23:44.987Z,20.54
2022-08-26T06:26:15.648Z,20.60
2022-08-26T06:28:45.336Z,20.66
2022-08-26T06:31:14.099Z,20.73
2022-08-26T06:33:43.407Z,20.78
2022-08-26T06:36:16.680Z,20.83
2022-08-26T06:38:47.613Z,20.89
2022-08-26T06:41:18.042Z,20.95
2022-08-26T06:43:45.905Z,21.00
2022-08-26T06:46:17.311Z,21.06
2022-08-26T06:48:45.731Z,21.11
2022-08-26T06:51:16.126Z,21.18
2022-08-26T06:53:47.003Z,21.22
2022-08-26T06:56:19.590Z,21.28
2022-08-26T06:58:48.134Z,21.36
2022-08-26T07:01:17.182Z,21.42
2022-08-26T07:03:46.712Z,21.47
2022-08-26T07:06:15.472Z,21.55
2022-08-26T07:08:44.453Z,21.60
2022-08-26T07:11:12.957Z,21.69
2022-08-26T07:13:42.371Z,21.76
2022-08-26T07:16:13.270Z,21.83
2022-08-26T07:18:44.773Z,21.90
2022-08-26T07:21:15.232Z,21.99
2022-08-26T07:23:43.119Z,22.06
2022-08-26T07:26:16.224Z,22.14
2022-08-26T07:28:46.786Z,22.21
2022-08-26T07:31:17.042Z,22.31
2022-08-26T07:33:45.342Z,22.40
2022-08-26T07:36:14.825Z,22.50
2022-08-26T07:38:44.346Z,22.57
2022-08-26T07:41:14.227Z,22.68
2022-08-26T07:43:43.578Z,22.75
2022-08-26T07:46:18.497Z,22.84
2022-08-26T07:48:50.442Z,22.92
2022-08-26T07:51:21.025Z,23.02
2022-08-26T07:53:52.322Z,23.11
2022-08-26T07:56:20.919Z,23.19
2022-08-26T07:58:51.888Z,23.28
2022-08-26T08:01:23.613Z,23.37
2022-08-26T08:03:52.410Z,23.45
2022-08-26T08:06:21.013Z,23.54
2022-08-26T08:08:51.593Z,23.66
2022-08-26T08:11:21.161Z,23.78
2022-08-26T08:13:49.855Z,23.90
2022-08-26T08:16:26.274Z,24.06
2022-08-26T08:18:54.547Z,24.18
2022-08-26T08:21:25.352Z,24.28
2022-08-26T08:23:54.475Z,24.43
2022-08-26T08:26:23.354Z,24.55
2022-08-26T08:28:52.266Z,24.71
2022-08-26T08:31:38.722Z,24.83
2022-08-26T08:34:10.818Z,25.01
2022-08-26T08:36:53.466Z,25.13
2022-08-26T08:39:22.455Z,25.31
2022-08-26T08:42:06.531Z,25.42
2022-08-26T08:44:38.055Z,25.58
2022-08-26T08:47:18.840Z,25.73
2022-08-26T08:49:49.959Z,25.91
2022-08-26T08:52:26.621Z,26.09
2022-08-26T08:54:56.577Z,26.21
2022-08-26T08:57:31.793Z,26.31
2022-08-26T09:00:05.430Z,26.43
2022-08-26T09:02:38.620Z,26.55
2022-08-26T09:05:24.599Z,26.69
2022-08-26T09:07:58.509Z,26.85
2022-08-26T09:10:36.711Z,27.06
2022-08-26T09:13:09.361Z,27.24
2022-08-26T09:15:51.693Z,27.43
2022-08-26T09:18:33.295Z,27.63
2022-08-26T09:21:05.500Z,27.80
2022-08-26T09:23:35.920Z,27.90
2022-08-26T09:26:14.386Z,27.97
2022-08-26T09:28:43.561Z,28.15
2022-08-26T09:31:14.582Z,28.31
2022-08-26T09:33:43.471Z,28.49
2022-08-26T09:36:22.817Z,28.65
2022-08-26T09:38:53.699Z,28.78
2022-08-26T09:41:25.831Z,28.94
2022-08-26T09:44:16.101Z,29.15
2022-08-26T09:46:52.322Z,29.26
2022-08-26T09:49:32.668Z,29.35
2022-08-26T09:52:16.203Z,29.54
2022-08-26T09:54:46.163Z,29.77
2022-08-26T09:57:28.316Z,30.00
2022-08-26T09:59:57.231Z,30.17
2022-08-26T10:02:47.692Z,30.36
2022-08-26T10:05:27.856Z,30.47
2022-08-26T10:08:00.312Z,30.60
2022-08-26T10:10:34.462Z,30.64
2022-08-26T10:13:07.668Z,30.64
2022-08-26T10:15:50.088Z,30.76
2022-08-26T10:18:23.770Z,30.86
2022-08-26T10:20:58.894Z,30.91
2022-08-26T10:23:34.071Z,31.02
2022-08-26T10:26:06.974Z,31.26
2022-08-26T10:28:41.280Z,31.50
2022-08-26T10:31:23.380Z,31.74
2022-08-26T10:33:58.817Z,31.94
2022-08-26T10:37:14.963Z,32.06
2022-08-26T10:39:48.012Z,32.24
2022-08-26T10:42:23.511Z,32.34
2022-08-26T10:44:58.729Z,32.39
2022-08-26T10:47:31.721Z,32.54
2022-08-26T10:50:03.340Z,32.76
2022-08-26T10:52:41.586Z,32.81
2022-08-26T10:55:17.914Z,32.69
2022-08-26T10:57:55.920Z,32.70
2022-08-26T11:00:48.401Z,32.77
2022-08-26T11:03:31.532Z,32.59
2022-08-26T11:06:32.852Z,32.36
2022-08-26T11:09:03.282Z,32.14
2022-08-26T11:11:46.800Z,31.95
2022-08-26T11:14:42.084Z,32.01
2022-08-26T11:18:00.365Z,32.20
2022-08-26T11:20:41.665Z,32.34
2022-08-26T11:23:40.397Z,32.48
2022-08-26T11:26:37.817Z,32.57
2022-08-26T11:29:13.580Z,32.65
2022-08-26T11:32:02.797Z,32.91
2022-08-26T11:34:55.001Z,33.21
2022-08-26T11:37:30.895Z,33.50
2022-08-26T11:40:03.913Z,33.65
2022-08-26T11:42:37.828Z,33.76
2022-08-26T11:45:19.697Z,33.91
2022-08-26T11:47:49.341Z,34.16
2022-08-26T11:50:20.590Z,34.36
2022-08-26T11:53:01.626Z,34.53
2022-08-26T11:55:30.540Z,34.70
2022-08-26T11:58:01.096Z,34.86
2022-08-26T12:00:34.480Z,35.18
2022-08-26T12:03:07.960Z,35.29
2022-08-26T12:05:43.201Z,35.44
2022-08-26T12:08:16.240Z,35.60
2022-08-26T12:10:46.791Z,35.80
2022-08-26T12:13:23.608Z,35.79
2022-08-26T12:15:58.245Z,35.84
2022-08-26T12:18:29.174Z,35.96
2022-08-26T12:21:01.115Z,36.26
2022-08-26T12:23:40.438Z,36.59
2022-08-26T12:26:14.472Z,36.97
2022-08-26T12:28:47.554Z,37.30
2022-08-26T12:31:26.900Z,37.60
2022-08-26T12:33:56.972Z,37.81
2022-08-26T12:36:31.633Z,38.06
2022-08-26T12:39:08.157Z,37.96
2022-08-26T12:41:41.619Z,37.75
2022-08-26T12:44:09.725Z,37.63
2022-08-26T12:46:39.110Z,37.87
2022-08-26T12:49:07.381Z,38.10
2022-08-26T12:51:42.031Z,38.05
2022-08-26T12:54:16.042Z,37.91
2022-08-26T12:56:44.481Z,37.84
2022-08-26T12:59:23.227Z,37.36
2022-08-26T13:01:53.996Z,36.97
2022-08-26T13:04:41.146Z,36.44
2022-08-26T13:07:24.878Z,35.84
2022-08-26T13:09:54.922Z,35.19
2022-08-26T13:12:28.981Z,34.72
2022-08-26T13:14:58.793Z,34.32
2022-08-26T13:17:28.625Z,33.92
2022-08-26T13:20:02.693Z,33.49
2022-08-26T13:22:31.770Z,33.07
2022-08-26T13:24:59.784Z,32.72
2022-08-26T13:27:28.413Z,32.31
2022-08-26T13:29:57.925Z,32.02
2022-08-26T13:32:28.342Z,31.76
2022-08-26T13:34:57.967Z,31.58
2022-08-26T13:37:34.586Z,31.35
2022-08-26T13:40:03.059Z,31.14
2022-08-26T13:42:31.386Z,30.94
2022-08-26T13:44:59.853Z,30.77
2022-08-26T13:47:29.313Z,30.62
2022-08-26T13:49:57.349Z,30.50
2022-08-26T13:52:30.168Z,30.36
2022-08-26T13:54:59.232Z,30.24
2022-08-26T13:57:28.521Z,30.16
2022-08-26T13:59:59.038Z,30.11
2022-08-26T14:02:28.923Z,30.02
2022-08-26T14:04:56.978Z,29.92
2022-08-26T14:07:25.319Z,29.83
2022-08-26T14:09:53.279Z,29.74
2022-08-26T14:12:21.190Z,29.66
2022-08-26T14:14:49.058Z,29.60
2022-08-26T14:17:20.797Z,29.53
2022-08-26T14:19:51.349Z,29.47
2022-08-26T14:22:21.489Z,29.40
2022-08-26T14:24:50.315Z,29.34
2022-08-26T14:27:18.223Z,29.29
2022-08-26T14:29:46.049Z,29.23
2022-08-26T14:32:19.434Z,29.18
2022-08-26T14:34:52.015Z,29.15
2022-08-26T14:37:23.598Z,29.12
2022-08-26T14:39:51.647Z,29.05
2022-08-26T14:42:24.681Z,28.99
2022-08-26T14:44:56.763Z,28.91
2022-08-26T14:47:25.096Z,28.83
2022-08-26T14:49:54.658Z,28.78
2022-08-26T14:52:22.783Z,28.72
2022-08-26T14:54:55.038Z,28.67
2022-08-26T14:57:23.445Z,28.54
2022-08-26T14:59:51.453Z,28.47
2022-08-26T15:02:27.723Z,28.40
2022-08-26T15:05:02.880Z,28.29
2022-08-26T15:07:31.109Z,28.21
2022-08-26T15:09:58.957Z,28.16
2022-08-26T15:12:27.778Z,28.10
2022-08-26T15:14:55.611Z,28.07
2022-08-26T15:17:23.510Z,28.03
2022-08-26T15:19:51.656Z,27.99
2022-08-26T15:22:20.943Z,27.91
2022-08-26T15:24:49.956Z,27.88
2022-08-26T15:27:21.894Z,27.84
2022-08-26T15:29:49.758Z,27.81
2022-08-26T15:32:17.684Z,27.75
2022-08-26T15:34:45.849Z,27.73
2022-08-26T15:37:13.680Z,27.72
2022-08-26T15:39:43.262Z,27.70
2022-08-26T15:42:11.662Z,27.67
2022-08-26T15:44:44.440Z,27.64
2022-08-26T15:47:12.717Z,27.64
2022-08-26T15:49:40.946Z,27.64
2022-08-26T15:52:09.864Z,27.63
2022-08-26T15:54:37.836Z,27.60
2022-08-26T15:57:09.466Z,27.59
2022-08-26T15:59:39.282Z,27.57
2022-08-26T16:02:07.168Z,27.55
2022-08-26T16:04:35.199Z,27.52
2022-08-26T16:07:03.532Z,27.54
2022-08-26T16:09:31.432Z,27.55
2022-08-26T16:11:59.769Z,27.54
2022-08-26T16:14:28.968Z,27.53
2022-08-26T16:16:59.769Z,27.52
2022-08-26T16:19:27.878Z,27.52
2022-08-26T16:21:55.703Z,27.51
2022-08-26T16:24:28.363Z,27.51
2022-08-26T16:26:56.482Z,27.49
2022-08-26T16:29:24.604Z,27.48
2022-08-26T16:31:59.686Z,27.43
2022-08-26T16:34:31.415Z,27.42
2022-08-26T16:36:59.295Z,27.40
2022-08-26T16:39:27.820Z,27.37
2022-08-26T16:41:55.657Z,27.36
2022-08-26T16:44:23.593Z,27.32
2022-08-26T16:46:58.733Z,27.28
2022-08-26T16:49:26.705Z,27.24
2022-08-26T16:51:54.526Z,27.20
2022-08-26T16:54:22.644Z,27.18
2022-08-26T16:56:50.484Z,27.14
2022-08-26T16:59:18.322Z,27.13
2022-08-26T17:01:46.220Z,27.09
2022-08-26T17:04:15.464Z,27.02
2022-08-26T17:06:43.291Z,26.94
2022-08-26T17:09:11.143Z,26.90
2022-08-26T17:11:39.471Z,26.84
2022-08-26T17:14:07.690Z,26.80
2022-08-26T17:16:35.621Z,26.76
2022-08-26T17:19:04.583Z,26.72
2022-08-26T17:21:35.671Z,26.69
2022-08-26T17:24:05.022Z,26.62
2022-08-26T17:26:33.356Z,26.57
2022-08-26T17:29:01.272Z,26.52
2022-08-26T17:31:29.193Z,26.45
2022-08-26T17:33:57.157Z,26.41
2022-08-26T17:36:27.826Z,26.37
2022-08-26T17:38:58.637Z,26.32
2022-08-26T17:41:27.432Z,26.25
2022-08-26T17:44:00.736Z,26.19
2022-08-26T17:46:45.583Z,26.10
2022-08-26T17:49:13.436Z,26.01
2022-08-26T17:51:41.460Z,25.94
2022-08-26T17:54:10.642Z,25.86
2022-08-26T17:56:38.612Z,25.80
2022-08-26T17:59:06.621Z,25.73
2022-08-26T18:01:35.417Z,25.64
2022-08-26T18:04:03.824Z,25.57
2022-08-26T18:06:32.450Z,25.49
2022-08-26T18:09:04.680Z,25.41
2022-08-26T18:11:34.881Z,25.32
2022-08-26T18:14:02.875Z,25.24
2022-08-26T18:16:34.206Z,25.15
2022-08-26T18:19:02.658Z,25.10
2022-08-26T18:21:30.588Z,25.03
2022-08-26T18:23:58.528Z,24.93
2022-08-26T18:26:29.059Z,24.87
2022-08-26T18:28:59.382Z,24.78
2022-08-26T18:31:28.017Z,24.72
2022-08-26T18:33:56.171Z,24.64
2022-08-26T18:36:26.745Z,24.57
2022-08-26T18:38:55.580Z,24.51
2022-08-26T18:41:25.600Z,24.45
2022-08-26T18:43:54.798Z,24.39
2022-08-26T18:46:26.439Z,24.32
2022-08-26T18:48:54.940Z,24.26
2022-08-26T18:51:25.379Z,24.20
2022-08-26T18:53:53.807Z,24.15
2022-08-26T18:56:21.680Z,24.09
2022-08-26T18:58:50.004Z,24.04
2022-08-26T19:01:20.933Z,23.98
2022-08-26T19:03:52.593Z,23.92
2022-08-26T19:06:23.336Z,23.86
2022-08-26T19:08:51.396Z,23.81
2022-08-26T19:11:31.718Z,23.77
2022-08-26T19:14:00.957Z,23.68
2022-08-26T19:16:29.492Z,23.65
2022-08-26T19:19:01.027Z,23.62
2022-08-26T19:21:30.006Z,23.58
2022-08-26T19:23:59.185Z,23.53
2022-08-26T19:26:32.923Z,23.49
2022-08-26T19:29:01.564Z,23.45
2022-08-26T19:31:29.575Z,23.42
2022-08-26T19:33:59.143Z,23.42
2022-08-26T19:36:29.012Z,23.39
2022-08-26T19:38:57.741Z,23.36
2022-08-26T19:41:36.944Z,23.33
2022-08-26T19:44:07.982Z,23.29
2022-08-26T19:49:10.970Z,23.23
2022-08-26T19:51:38.843Z,23.21
2022-08-26T19:54:06.868Z,23.20
2022-08-26T19:56:34.922Z,23.19
2022-08-26T19:59:02.832Z,23.17
2022-08-26T20:01:30.782Z,23.16
2022-08-26T20:03:58.730Z,23.14
2022-08-26T20:06:27.928Z,23.13
2022-08-26T20:08:56.245Z,23.10
2022-08-26T20:11:24.392Z,23.08
2022-08-26T20:13:52.224Z,23.07
2022-08-26T20:16:20.163Z,23.03
2022-08-26T20:19:05.765Z,23.00
2022-08-26T20:21:38.938Z,22.97
2022-08-26T20:24:10.505Z,22.94
2022-08-26T20:26:39.985Z,22.90
2022-08-26T20:29:09.712Z,22.88
2022-08-26T20:31:38.153Z,22.87
2022-08-26T20:34:07.622Z,22.87
2022-08-26T20:36:39.486Z,22.87
2022-08-26T20:39:08.198Z,22.85
2022-08-26T20:41:36.118Z,22.85
2022-08-26T20:44:04.659Z,22.84
2022-08-26T20:46:32.606Z,22.82
2022-08-26T20:49:00.551Z,22.80
2022-08-26T20:51:29.269Z,22.79
2022-08-26T20:53:58.558Z,22.78
2022-08-26T20:56:26.587Z,22.79
2022-08-26T20:59:00.301Z,22.79
2022-08-26T21:01:30.753Z,22.79
2022-08-26T21:03:58.777Z,22.79
2022-08-26T21:06:26.924Z,22.78
2022-08-26T21:08:55.203Z,22.77
2022-08-26T21:11:25.225Z,22.77
2022-08-26T21:14:15.794Z,22.75
2022-08-26T21:16:41.885Z,22.75
2022-08-26T21:19:12.922Z,22.73
2022-08-26T21:21:42.218Z,22.71
2022-08-26T21:24:10.324Z,22.70
2022-08-26T21:26:39.897Z,22.70
2022-08-26T21:29:09.707Z,22.67
2022-08-26T21:31:44.925Z,22.65
2022-08-26T21:34:13.941Z,22.63
2022-08-26T21:36:42.038Z,22.63
2022-08-26T21:39:12.102Z,22.59
2022-08-26T21:41:43.201Z,22.58
2022-08-26T21:44:12.061Z,22.57
2022-08-26T21:46:40.615Z,22.55
2022-08-26T21:49:10.566Z,22.52
2022-08-26T21:51:41.198Z,22.51
2022-08-26T21:54:11.342Z,22.48
2022-08-26T21:56:44.351Z,22.46
2022-08-26T21:59:13.452Z,22.45
2022-08-26T22:01:41.421Z,22.41
2022-08-26T22:04:10.937Z,22.40
2022-08-26T22:06:43.367Z,22.37
2022-08-26T22:09:12.270Z,22.34
2022-08-26T22:11:42.215Z,22.33
2022-08-26T22:14:11.081Z,22.29
2022-08-26T22:16:39.193Z,22.23
2022-08-26T22:19:07.332Z,22.21
2022-08-26T22:21:40.451Z,22.18
2022-08-26T22:24:08.752Z,22.17
2022-08-26T22:26:36.718Z,22.15
2022-08-26T22:29:07.825Z,22.13
2022-08-26T22:31:37.606Z,22.11
2022-08-26T22:34:08.274Z,22.09
2022-08-26T22:36:43.124Z,22.08
2022-08-26T22:39:12.959Z,22.01
2022-08-26T22:41:41.287Z,22.00
2022-08-26T22:44:11.743Z,21.97
2022-08-26T22:46:41.071Z,21.92
2022-08-26T22:49:09.874Z,21.89
2022-08-26T22:51:37.777Z,21.84
2022-08-26T22:54:06.468Z,21.81
2022-08-26T22:56:34.961Z,21.79
2022-08-26T22:59:02.941Z,21.76
2022-08-26T23:01:36.316Z,21.73
2022-08-26T23:04:06.272Z,21.69
2022-08-26T23:06:36.163Z,21.67
2022-08-26T23:09:04.185Z,21.63
2022-08-26T23:11:32.154Z,21.60
2022-08-26T23:14:00.511Z,21.57
2022-08-26T23:16:39.223Z,21.55
2022-08-26T23:19:07.914Z,21.54
2022-08-26T23:21:36.303Z,21.53
2022-08-26T23:24:04.816Z,21.52
2022-08-26T23:26:33.091Z,21.50
2022-08-26T23:29:01.469Z,21.50
2022-08-26T23:31:29.558Z,21.48
2022-08-26T23:34:16.473Z,21.47
2022-08-26T23:36:45.298Z,21.45
2022-08-26T23:39:15.141Z,21.43
2022-08-26T23:41:43.117Z,21.40
2022-08-26T23:44:11.082Z,21.40
2022-08-26T23:46:39.511Z,21.39
2022-08-26T23:49:08.741Z,21.37
2022-08-26T23:51:59.752Z,21.37
2022-08-26T23:54:27.786Z,21.34
2022-08-26T23:56:55.651Z,21.34
2022-08-26T23:59:23.522Z,21.34
